sensor_id;sensor_type;location;lat;lon;timestamp;P1;durP1;ratioP1;P2;durP2;ratioP2
38529;SDS011;24301;54.332;48.386;2023-05-16T00:01:09;13.88;;;11.13;;
38529;SDS011;24301;54.332;48.386;2023-05-16T00:03:35;14.38;;;12.13;;
38529;SDS011;24301;54.332;48.386;2023-05-16T00:06:03;13.57;;;10.77;;
38529;SDS011;24301;54.332;48.386;2023-05-16T00:08:30;12.73;;;11.35;;
38529;SDS011;24301;54.332;48.386;2023-05-16T00:10:56;12.68;;;11.25;;
38529;SDS011;24301;54.332;48.386;2023-05-16T00:13:21;14.30;;;12.15;;
38529;SDS011;24301;54.332;48.386;2023-05-16T00:15:50;16.88;;;12.07;;
38529;SDS011;24301;54.332;48.386;2023-05-16T00:18:18;16.65;;;12.18;;
38529;SDS011;24301;54.332;48.386;2023-05-16T00:20:44;16.67;;;13.43;;
38529;SDS011;24301;54.332;48.386;2023-05-16T00:23:10;15.55;;;13.15;;
38529;SDS011;24301;54.332;48.386;2023-05-16T00:25:37;15.45;;;12.93;;
38529;SDS011;24301;54.332;48.386;2023-05-16T00:28:03;16.23;;;13.18;;
38529;SDS011;24301;54.332;48.386;2023-05-16T00:30:29;16.60;;;13.43;;
38529;SDS011;24301;54.332;48.386;2023-05-16T00:32:56;14.73;;;12.70;;
38529;SDS011;24301;54.332;48.386;2023-05-16T00:35:22;15.45;;;12.13;;
38529;SDS011;24301;54.332;48.386;2023-05-16T00:37:49;14.93;;;11.90;;
38529;SDS011;24301;54.332;48.386;2023-05-16T00:40:15;15.70;;;12.95;;
38529;SDS011;24301;54.332;48.386;2023-05-16T00:42:41;17.95;;;13.70;;
38529;SDS011;24301;54.332;48.386;2023-05-16T00:45:07;13.25;;;11.20;;
38529;SDS011;24301;54.332;48.386;2023-05-16T00:47:34;15.18;;;12.20;;
38529;SDS011;24301;54.332;48.386;2023-05-16T00:50:01;15.98;;;13.13;;
38529;SDS011;24301;54.332;48.386;2023-05-16T00:52:31;16.60;;;13.43;;
38529;SDS011;24301;54.332;48.386;2023-05-16T00:54:58;16.13;;;12.57;;
38529;SDS011;24301;54.332;48.386;2023-05-16T00:57:24;16.23;;;13.63;;
38529;SDS011;24301;54.332;48.386;2023-05-16T00:59:50;16.00;;;13.65;;
38529;SDS011;24301;54.332;48.386;2023-05-16T01:02:17;19.95;;;14.57;;
38529;SDS011;24301;54.332;48.386;2023-05-16T01:04:44;15.98;;;13.07;;
38529;SDS011;24301;54.332;48.386;2023-05-16T01:07:13;16.20;;;13.35;;
38529;SDS011;24301;54.332;48.386;2023-05-16T01:09:39;15.95;;;14.02;;
38529;SDS011;24301;54.332;48.386;2023-05-16T01:15:06;18.77;;;12.88;;
38529;SDS011;24301;54.332;48.386;2023-05-16T01:17:37;16.05;;;13.15;;
38529;SDS011;24301;54.332;48.386;2023-05-16T01:20:36;14.55;;;12.05;;
38529;SDS011;24301;54.332;48.386;2023-05-16T01:26:10;14.73;;;12.10;;
38529;SDS011;24301;54.332;48.386;2023-05-16T01:28:43;13.98;;;11.70;;
38529;SDS011;24301;54.332;48.386;2023-05-16T01:31:11;11.80;;;10.30;;
38529;SDS011;24301;54.332;48.386;2023-05-16T01:33:37;13.63;;;10.82;;
38529;SDS011;24301;54.332;48.386;2023-05-16T01:38:55;9.98;;;8.65;;
38529;SDS011;24301;54.332;48.386;2023-05-16T01:41:32;11.32;;;9.35;;
38529;SDS011;24301;54.332;48.386;2023-05-16T01:44:28;11.65;;;9.43;;
38529;SDS011;24301;54.332;48.386;2023-05-16T01:47:15;9.18;;;8.27;;
38529;SDS011;24301;54.332;48.386;2023-05-16T01:49:46;9.15;;;8.02;;
38529;SDS011;24301;54.332;48.386;2023-05-16T01:52:20;8.75;;;7.80;;
38529;SDS011;24301;54.332;48.386;2023-05-16T01:55:10;9.10;;;7.45;;
38529;SDS011;24301;54.332;48.386;2023-05-16T01:57:41;9.63;;;8.63;;
38529;SDS011;24301;54.332;48.386;2023-05-16T02:00:10;10.23;;;9.18;;
38529;SDS011;24301;54.332;48.386;2023-05-16T02:02:40;10.30;;;9.30;;
38529;SDS011;24301;54.332;48.386;2023-05-16T02:05:08;10.57;;;8.82;;
38529;SDS011;24301;54.332;48.386;2023-05-16T02:07:35;11.95;;;8.18;;
38529;SDS011;24301;54.332;48.386;2023-05-16T02:10:01;9.52;;;8.43;;
38529;SDS011;24301;54.332;48.386;2023-05-16T02:12:29;10.35;;;8.65;;
38529;SDS011;24301;54.332;48.386;2023-05-16T02:14:55;9.63;;;7.90;;
38529;SDS011;24301;54.332;48.386;2023-05-16T02:17:21;8.23;;;7.20;;
38529;SDS011;24301;54.332;48.386;2023-05-16T02:19:47;10.32;;;7.10;;
38529;SDS011;24301;54.332;48.386;2023-05-16T02:22:13;9.60;;;7.85;;
38529;SDS011;24301;54.332;48.386;2023-05-16T02:24:39;6.97;;;6.28;;
38529;SDS011;24301;54.332;48.386;2023-05-16T02:27:05;9.00;;;7.57;;
38529;SDS011;24301;54.332;48.386;2023-05-16T02:29:31;8.43;;;7.50;;
38529;SDS011;24301;54.332;48.386;2023-05-16T02:31:57;8.00;;;7.20;;
38529;SDS011;24301;54.332;48.386;2023-05-16T02:34:22;7.28;;;6.57;;
38529;SDS011;24301;54.332;48.386;2023-05-16T02:36:48;8.20;;;6.47;;
38529;SDS011;24301;54.332;48.386;2023-05-16T02:39:14;8.88;;;6.60;;
38529;SDS011;24301;54.332;48.386;2023-05-16T02:41:40;8.60;;;6.82;;
38529;SDS011;24301;54.332;48.386;2023-05-16T02:44:07;7.05;;;6.35;;
38529;SDS011;24301;54.332;48.386;2023-05-16T02:46:33;9.45;;;6.30;;
38529;SDS011;24301;54.332;48.386;2023-05-16T02:49:02;6.57;;;5.93;;
38529;SDS011;24301;54.332;48.386;2023-05-16T02:51:28;9.55;;;6.20;;
38529;SDS011;24301;54.332;48.386;2023-05-16T02:53:54;7.00;;;5.80;;
38529;SDS011;24301;54.332;48.386;2023-05-16T02:56:27;9.80;;;5.35;;
38529;SDS011;24301;54.332;48.386;2023-05-16T02:58:53;6.97;;;5.68;;
38529;SDS011;24301;54.332;48.386;2023-05-16T03:01:20;7.03;;;5.57;;
38529;SDS011;24301;54.332;48.386;2023-05-16T03:03:46;7.75;;;5.45;;
38529;SDS011;24301;54.332;48.386;2023-05-16T03:06:12;5.93;;;5.35;;
38529;SDS011;24301;54.332;48.386;2023-05-16T03:08:38;6.53;;;5.90;;
38529;SDS011;24301;54.332;48.386;2023-05-16T03:11:04;6.55;;;4.80;;
38529;SDS011;24301;54.332;48.386;2023-05-16T03:13:30;6.35;;;5.57;;
38529;SDS011;24301;54.332;48.386;2023-05-16T03:15:58;5.28;;;4.78;;
38529;SDS011;24301;54.332;48.386;2023-05-16T03:18:24;6.65;;;5.28;;
38529;SDS011;24301;54.332;48.386;2023-05-16T03:20:50;5.65;;;4.90;;
38529;SDS011;24301;54.332;48.386;2023-05-16T03:23:18;6.60;;;5.63;;
38529;SDS011;24301;54.332;48.386;2023-05-16T03:25:45;6.25;;;5.03;;
38529;SDS011;24301;54.332;48.386;2023-05-16T03:28:11;6.45;;;4.90;;
38529;SDS011;24301;54.332;48.386;2023-05-16T03:30:37;6.40;;;4.75;;
38529;SDS011;24301;54.332;48.386;2023-05-16T03:33:03;6.28;;;5.13;;
38529;SDS011;24301;54.332;48.386;2023-05-16T03:35:32;6.35;;;5.45;;
38529;SDS011;24301;54.332;48.386;2023-05-16T03:38:00;6.00;;;4.93;;
38529;SDS011;24301;54.332;48.386;2023-05-16T03:40:27;6.15;;;5.25;;
38529;SDS011;24301;54.332;48.386;2023-05-16T03:42:53;7.45;;;6.03;;
38529;SDS011;24301;54.332;48.386;2023-05-16T03:45:19;6.60;;;5.47;;
38529;SDS011;24301;54.332;48.386;2023-05-16T03:47:45;6.10;;;5.07;;
38529;SDS011;24301;54.332;48.386;2023-05-16T03:50:13;7.28;;;5.50;;
38529;SDS011;24301;54.332;48.386;2023-05-16T03:52:39;6.63;;;6.03;;
38529;SDS011;24301;54.332;48.386;2023-05-16T03:55:05;7.32;;;5.38;;
38529;SDS011;24301;54.332;48.386;2023-05-16T03:57:32;7.88;;;5.20;;
38529;SDS011;24301;54.332;48.386;2023-05-16T03:59:58;6.40;;;5.63;;
38529;SDS011;24301;54.332;48.386;2023-05-16T04:02:25;6.53;;;5.88;;
38529;SDS011;24301;54.332;48.386;2023-05-16T04:04:51;6.00;;;5.32;;
38529;SDS011;24301;54.332;48.386;2023-05-16T04:07:17;6.90;;;5.28;;
38529;SDS011;24301;54.332;48.386;2023-05-16T04:09:42;7.47;;;6.18;;
38529;SDS011;24301;54.332;48.386;2023-05-16T04:12:08;7.80;;;5.65;;
38529;SDS011;24301;54.332;48.386;2023-05-16T04:14:34;10.80;;;5.28;;
38529;SDS011;24301;54.332;48.386;2023-05-16T04:17:00;7.13;;;6.40;;
38529;SDS011;24301;54.332;48.386;2023-05-16T04:19:26;6.85;;;6.03;;
38529;SDS011;24301;54.332;48.386;2023-05-16T04:21:52;6.63;;;5.20;;
38529;SDS011;24301;54.332;48.386;2023-05-16T04:24:18;6.57;;;5.93;;
38529;SDS011;24301;54.332;48.386;2023-05-16T04:26:44;6.93;;;6.07;;
38529;SDS011;24301;54.332;48.386;2023-05-16T04:29:10;6.40;;;5.32;;
38529;SDS011;24301;54.332;48.386;2023-05-16T04:31:36;8.05;;;5.75;;
38529;SDS011;24301;54.332;48.386;2023-05-16T04:34:02;11.88;;;7.30;;
38529;SDS011;24301;54.332;48.386;2023-05-16T04:36:28;9.07;;;6.05;;
38529;SDS011;24301;54.332;48.386;2023-05-16T04:38:55;7.45;;;6.03;;
38529;SDS011;24301;54.332;48.386;2023-05-16T04:41:22;7.60;;;6.65;;
38529;SDS011;24301;54.332;48.386;2023-05-16T04:43:48;7.28;;;6.57;;
38529;SDS011;24301;54.332;48.386;2023-05-16T04:46:14;8.15;;;7.13;;
38529;SDS011;24301;54.332;48.386;2023-05-16T04:48:40;7.25;;;6.45;;
38529;SDS011;24301;54.332;48.386;2023-05-16T04:51:06;7.10;;;6.35;;
38529;SDS011;24301;54.332;48.386;2023-05-16T04:53:32;7.40;;;6.70;;
38529;SDS011;24301;54.332;48.386;2023-05-16T04:55:58;9.05;;;7.03;;
38529;SDS011;24301;54.332;48.386;2023-05-16T04:58:24;8.15;;;7.35;;
38529;SDS011;24301;54.332;48.386;2023-05-16T05:00:51;8.55;;;7.53;;
38529;SDS011;24301;54.332;48.386;2023-05-16T05:03:17;8.35;;;7.55;;
38529;SDS011;24301;54.332;48.386;2023-05-16T05:05:43;8.13;;;7.32;;
38529;SDS011;24301;54.332;48.386;2023-05-16T05:08:10;8.98;;;7.50;;
38529;SDS011;24301;54.332;48.386;2023-05-16T05:10:36;7.60;;;6.88;;
38529;SDS011;24301;54.332;48.386;2023-05-16T05:13:02;7.55;;;6.70;;
38529;SDS011;24301;54.332;48.386;2023-05-16T05:15:29;9.05;;;7.50;;
38529;SDS011;24301;54.332;48.386;2023-05-16T05:17:55;9.55;;;6.65;;
38529;SDS011;24301;54.332;48.386;2023-05-16T05:20:21;8.35;;;6.68;;
38529;SDS011;24301;54.332;48.386;2023-05-16T05:22:49;10.68;;;7.40;;
38529;SDS011;24301;54.332;48.386;2023-05-16T05:25:15;8.90;;;7.72;;
38529;SDS011;24301;54.332;48.386;2023-05-16T05:27:40;8.30;;;7.45;;
38529;SDS011;24301;54.332;48.386;2023-05-16T05:30:06;8.82;;;7.15;;
38529;SDS011;24301;54.332;48.386;2023-05-16T05:32:32;8.80;;;6.72;;
38529;SDS011;24301;54.332;48.386;2023-05-16T05:34:58;7.53;;;6.57;;
38529;SDS011;24301;54.332;48.386;2023-05-16T05:37:25;8.90;;;6.60;;
38529;SDS011;24301;54.332;48.386;2023-05-16T05:39:51;8.43;;;6.35;;
38529;SDS011;24301;54.332;48.386;2023-05-16T05:42:17;7.22;;;6.50;;
38529;SDS011;24301;54.332;48.386;2023-05-16T05:44:43;9.30;;;7.32;;
38529;SDS011;24301;54.332;48.386;2023-05-16T05:47:09;7.40;;;6.65;;
38529;SDS011;24301;54.332;48.386;2023-05-16T05:49:35;8.07;;;7.28;;
38529;SDS011;24301;54.332;48.386;2023-05-16T05:52:01;8.23;;;7.32;;
38529;SDS011;24301;54.332;48.386;2023-05-16T05:54:28;6.97;;;6.30;;
38529;SDS011;24301;54.332;48.386;2023-05-16T05:56:56;7.55;;;6.75;;
38529;SDS011;24301;54.332;48.386;2023-05-16T05:59:24;7.97;;;6.57;;
38529;SDS011;24301;54.332;48.386;2023-05-16T06:01:50;8.02;;;6.95;;
38529;SDS011;24301;54.332;48.386;2023-05-16T06:04:17;7.38;;;6.65;;
38529;SDS011;24301;54.332;48.386;2023-05-16T06:06:44;6.95;;;6.20;;
38529;SDS011;24301;54.332;48.386;2023-05-16T06:09:11;7.85;;;6.65;;
38529;SDS011;24301;54.332;48.386;2023-05-16T06:11:38;9.50;;;6.50;;
38529;SDS011;24301;54.332;48.386;2023-05-16T06:14:06;8.75;;;6.57;;
38529;SDS011;24301;54.332;48.386;2023-05-16T06:16:32;8.70;;;6.85;;
38529;SDS011;24301;54.332;48.386;2023-05-16T06:18:58;6.93;;;6.00;;
38529;SDS011;24301;54.332;48.386;2023-05-16T06:21:25;8.30;;;6.55;;
38529;SDS011;24301;54.332;48.386;2023-05-16T06:23:50;7.35;;;6.60;;
38529;SDS011;24301;54.332;48.386;2023-05-16T06:26:16;7.07;;;6.05;;
38529;SDS011;24301;54.332;48.386;2023-05-16T06:28:42;7.30;;;6.30;;
38529;SDS011;24301;54.332;48.386;2023-05-16T06:31:08;6.68;;;6.05;;
38529;SDS011;24301;54.332;48.386;2023-05-16T06:33:34;7.28;;;6.35;;
38529;SDS011;24301;54.332;48.386;2023-05-16T06:36:00;7.82;;;6.35;;
38529;SDS011;24301;54.332;48.386;2023-05-16T06:38:26;7.32;;;6.63;;
38529;SDS011;24301;54.332;48.386;2023-05-16T06:41:00;7.07;;;6.30;;
38529;SDS011;24301;54.332;48.386;2023-05-16T06:43:59;7.50;;;5.60;;
38529;SDS011;24301;54.332;48.386;2023-05-16T06:46:30;7.45;;;6.75;;
38529;SDS011;24301;54.332;48.386;2023-05-16T06:49:03;7.35;;;6.65;;
38529;SDS011;24301;54.332;48.386;2023-05-16T06:51:36;7.35;;;6.65;;
38529;SDS011;24301;54.332;48.386;2023-05-16T06:54:06;7.68;;;6.60;;
38529;SDS011;24301;54.332;48.386;2023-05-16T06:56:37;7.35;;;6.63;;
38529;SDS011;24301;54.332;48.386;2023-05-16T06:59:03;7.88;;;6.75;;
38529;SDS011;24301;54.332;48.386;2023-05-16T07:01:29;9.48;;;6.50;;
38529;SDS011;24301;54.332;48.386;2023-05-16T07:03:55;8.05;;;7.18;;
38529;SDS011;24301;54.332;48.386;2023-05-16T07:08:53;8.82;;;6.15;;
38529;SDS011;24301;54.332;48.386;2023-05-16T07:11:22;6.18;;;5.55;;
38529;SDS011;24301;54.332;48.386;2023-05-16T07:13:48;6.65;;;6.00;;
38529;SDS011;24301;54.332;48.386;2023-05-16T07:16:14;6.63;;;6.00;;
38529;SDS011;24301;54.332;48.386;2023-05-16T07:18:40;6.32;;;5.72;;
38529;SDS011;24301;54.332;48.386;2023-05-16T07:21:08;6.15;;;5.53;;
38529;SDS011;24301;54.332;48.386;2023-05-16T07:23:35;6.18;;;5.57;;
38529;SDS011;24301;54.332;48.386;2023-05-16T07:26:01;6.63;;;5.30;;
38529;SDS011;24301;54.332;48.386;2023-05-16T07:28:27;7.78;;;5.72;;
38529;SDS011;24301;54.332;48.386;2023-05-16T07:30:53;5.88;;;5.30;;
38529;SDS011;24301;54.332;48.386;2023-05-16T07:33:19;7.07;;;5.50;;
38529;SDS011;24301;54.332;48.386;2023-05-16T07:35:45;8.07;;;5.88;;
38529;SDS011;24301;54.332;48.386;2023-05-16T07:38:11;6.57;;;5.85;;
38529;SDS011;24301;54.332;48.386;2023-05-16T07:40:37;6.22;;;5.63;;
38529;SDS011;24301;54.332;48.386;2023-05-16T07:43:03;5.85;;;5.13;;
38529;SDS011;24301;54.332;48.386;2023-05-16T07:45:29;6.22;;;5.20;;
38529;SDS011;24301;54.332;48.386;2023-05-16T07:47:55;6.30;;;5.70;;
38529;SDS011;24301;54.332;48.386;2023-05-16T07:50:21;7.85;;;7.05;;
38529;SDS011;24301;54.332;48.386;2023-05-16T07:52:46;9.15;;;6.65;;
38529;SDS011;24301;54.332;48.386;2023-05-16T07:55:12;7.63;;;6.85;;
38529;SDS011;24301;54.332;48.386;2023-05-16T07:57:38;6.30;;;5.70;;
38529;SDS011;24301;54.332;48.386;2023-05-16T08:00:04;6.03;;;5.43;;
38529;SDS011;24301;54.332;48.386;2023-05-16T08:02:38;7.43;;;6.55;;
38529;SDS011;24301;54.332;48.386;2023-05-16T08:05:04;7.32;;;6.25;;
38529;SDS011;24301;54.332;48.386;2023-05-16T08:07:31;6.22;;;5.57;;
38529;SDS011;24301;54.332;48.386;2023-05-16T08:09:57;6.53;;;5.82;;
38529;SDS011;24301;54.332;48.386;2023-05-16T08:12:23;9.93;;;6.65;;
38529;SDS011;24301;54.332;48.386;2023-05-16T08:14:49;7.85;;;7.05;;
38529;SDS011;24301;54.332;48.386;2023-05-16T08:17:15;6.95;;;6.25;;
38529;SDS011;24301;54.332;48.386;2023-05-16T08:19:41;7.78;;;6.88;;
38529;SDS011;24301;54.332;48.386;2023-05-16T08:22:07;7.72;;;6.18;;
38529;SDS011;24301;54.332;48.386;2023-05-16T08:24:34;6.55;;;5.88;;
38529;SDS011;24301;54.332;48.386;2023-05-16T08:27:00;8.32;;;6.75;;
38529;SDS011;24301;54.332;48.386;2023-05-16T08:29:26;7.25;;;6.38;;
38529;SDS011;24301;54.332;48.386;2023-05-16T08:31:52;7.43;;;6.55;;
38529;SDS011;24301;54.332;48.386;2023-05-16T08:34:18;8.95;;;6.30;;
38529;SDS011;24301;54.332;48.386;2023-05-16T08:36:43;7.07;;;6.05;;
38529;SDS011;24301;54.332;48.386;2023-05-16T08:39:09;7.60;;;6.60;;
38529;SDS011;24301;54.332;48.386;2023-05-16T08:41:36;8.35;;;6.45;;
38529;SDS011;24301;54.332;48.386;2023-05-16T08:44:07;7.30;;;6.60;;
38529;SDS011;24301;54.332;48.386;2023-05-16T08:46:35;7.05;;;5.93;;
38529;SDS011;24301;54.332;48.386;2023-05-16T08:49:01;7.85;;;5.88;;
38529;SDS011;24301;54.332;48.386;2023-05-16T08:51:32;7.68;;;6.70;;
38529;SDS011;24301;54.332;48.386;2023-05-16T08:54:10;9.05;;;7.60;;
38529;SDS011;24301;54.332;48.386;2023-05-16T08:56:37;8.25;;;6.88;;
38529;SDS011;24301;54.332;48.386;2023-05-16T08:59:05;8.15;;;7.35;;
38529;SDS011;24301;54.332;48.386;2023-05-16T09:01:32;7.20;;;5.90;;
38529;SDS011;24301;54.332;48.386;2023-05-16T09:03:59;9.27;;;6.35;;
38529;SDS011;24301;54.332;48.386;2023-05-16T09:06:25;7.00;;;6.18;;
38529;SDS011;24301;54.332;48.386;2023-05-16T09:08:52;7.43;;;6.60;;
38529;SDS011;24301;54.332;48.386;2023-05-16T09:11:18;7.22;;;6.28;;
38529;SDS011;24301;54.332;48.386;2023-05-16T09:13:47;6.18;;;5.57;;
38529;SDS011;24301;54.332;48.386;2023-05-16T09:16:17;7.40;;;6.13;;
38529;SDS011;24301;54.332;48.386;2023-05-16T09:18:45;7.55;;;6.18;;
38529;SDS011;24301;54.332;48.386;2023-05-16T09:21:19;7.78;;;6.43;;
38529;SDS011;24301;54.332;48.386;2023-05-16T09:23:47;9.85;;;6.30;;
38529;SDS011;24301;54.332;48.386;2023-05-16T09:26:14;8.00;;;6.82;;
38529;SDS011;24301;54.332;48.386;2023-05-16T09:28:40;7.20;;;6.00;;
38529;SDS011;24301;54.332;48.386;2023-05-16T09:31:23;8.07;;;6.65;;
38529;SDS011;24301;54.332;48.386;2023-05-16T09:33:56;8.60;;;6.22;;
38529;SDS011;24301;54.332;48.386;2023-05-16T09:36:21;7.60;;;6.82;;
38529;SDS011;24301;54.332;48.386;2023-05-16T09:38:51;7.82;;;6.80;;
38529;SDS011;24301;54.332;48.386;2023-05-16T09:41:17;8.32;;;6.20;;
38529;SDS011;24301;54.332;48.386;2023-05-16T09:43:43;8.45;;;6.35;;
38529;SDS011;24301;54.332;48.386;2023-05-16T09:46:13;8.55;;;6.75;;
38529;SDS011;24301;54.332;48.386;2023-05-16T09:48:46;7.18;;;6.05;;
38529;SDS011;24301;54.332;48.386;2023-05-16T09:51:12;7.32;;;5.80;;
38529;SDS011;24301;54.332;48.386;2023-05-16T09:53:39;8.15;;;7.07;;
38529;SDS011;24301;54.332;48.386;2023-05-16T09:56:07;7.55;;;5.95;;
38529;SDS011;24301;54.332;48.386;2023-05-16T09:58:36;9.23;;;6.38;;
38529;SDS011;24301;54.332;48.386;2023-05-16T10:01:03;8.73;;;6.15;;
38529;SDS011;24301;54.332;48.386;2023-05-16T10:03:35;6.57;;;5.90;;
38529;SDS011;24301;54.332;48.386;2023-05-16T10:06:05;9.55;;;6.60;;
38529;SDS011;24301;54.332;48.386;2023-05-16T10:08:32;7.15;;;5.88;;
38529;SDS011;24301;54.332;48.386;2023-05-16T10:11:01;7.47;;;6.68;;
38529;SDS011;24301;54.332;48.386;2023-05-16T10:13:32;6.97;;;6.28;;
38529;SDS011;24301;54.332;48.386;2023-05-16T10:16:00;7.68;;;5.70;;
38529;SDS011;24301;54.332;48.386;2023-05-16T10:18:31;6.63;;;5.80;;
38529;SDS011;24301;54.332;48.386;2023-05-16T10:21:06;7.05;;;6.10;;
38529;SDS011;24301;54.332;48.386;2023-05-16T10:23:34;7.57;;;6.22;;
38529;SDS011;24301;54.332;48.386;2023-05-16T10:26:02;7.47;;;6.68;;
38529;SDS011;24301;54.332;48.386;2023-05-16T10:28:30;7.05;;;6.13;;
38529;SDS011;24301;54.332;48.386;2023-05-16T10:30:57;6.47;;;5.78;;
38529;SDS011;24301;54.332;48.386;2023-05-16T10:33:25;8.18;;;6.03;;
38529;SDS011;24301;54.332;48.386;2023-05-16T10:35:51;6.68;;;5.97;;
38529;SDS011;24301;54.332;48.386;2023-05-16T10:38:17;6.88;;;6.18;;
38529;SDS011;24301;54.332;48.386;2023-05-16T10:40:45;7.13;;;6.18;;
38529;SDS011;24301;54.332;48.386;2023-05-16T10:43:21;7.28;;;6.57;;
38529;SDS011;24301;54.332;48.386;2023-05-16T10:45:55;6.75;;;5.35;;
38529;SDS011;24301;54.332;48.386;2023-05-16T10:48:33;7.32;;;6.50;;
38529;SDS011;24301;54.332;48.386;2023-05-16T10:51:01;7.57;;;6.00;;
38529;SDS011;24301;54.332;48.386;2023-05-16T10:53:32;7.50;;;6.13;;
38529;SDS011;24301;54.332;48.386;2023-05-16T11:01:16;6.18;;;5.57;;
38529;SDS011;24301;54.332;48.386;2023-05-16T11:06:25;7.70;;;6.90;;
38529;SDS011;24301;54.332;48.386;2023-05-16T11:14:56;8.00;;;6.70;;
38529;SDS011;24301;54.332;48.386;2023-05-16T11:19:43;6.30;;;5.43;;
38529;SDS011;24301;54.332;48.386;2023-05-16T11:24:50;7.40;;;6.63;;
38529;SDS011;24301;54.332;48.386;2023-05-16T11:28:00;7.40;;;6.32;;
38529;SDS011;24301;54.332;48.386;2023-05-16T11:32:35;8.30;;;5.47;;
38529;SDS011;24301;54.332;48.386;2023-05-16T11:35:02;7.00;;;5.88;;
38529;SDS011;24301;54.332;48.386;2023-05-16T11:37:31;7.45;;;6.68;;
38529;SDS011;24301;54.332;48.386;2023-05-16T11:40:00;6.60;;;5.88;;
38529;SDS011;24301;54.332;48.386;2023-05-16T11:42:30;7.25;;;5.88;;
38529;SDS011;24301;54.332;48.386;2023-05-16T11:45:05;6.55;;;5.65;;
38529;SDS011;24301;54.332;48.386;2023-05-16T11:49:58;6.47;;;5.53;;
38529;SDS011;24301;54.332;48.386;2023-05-16T11:52:24;6.18;;;5.57;;
38529;SDS011;24301;54.332;48.386;2023-05-16T11:54:50;6.55;;;5.38;;
38529;SDS011;24301;54.332;48.386;2023-05-16T11:57:16;6.78;;;5.85;;
38529;SDS011;24301;54.332;48.386;2023-05-16T11:59:42;7.35;;;6.13;;
38529;SDS011;24301;54.332;48.386;2023-05-16T12:02:14;8.30;;;6.40;;
38529;SDS011;24301;54.332;48.386;2023-05-16T12:04:40;8.07;;;6.13;;
38529;SDS011;24301;54.332;48.386;2023-05-16T12:07:05;7.25;;;5.88;;
38529;SDS011;24301;54.332;48.386;2023-05-16T12:09:32;8.70;;;6.38;;
38529;SDS011;24301;54.332;48.386;2023-05-16T12:11:57;8.38;;;6.38;;
38529;SDS011;24301;54.332;48.386;2023-05-16T12:14:23;7.55;;;6.75;;
38529;SDS011;24301;54.332;48.386;2023-05-16T12:16:50;8.00;;;6.68;;
38529;SDS011;24301;54.332;48.386;2023-05-16T12:19:19;6.70;;;6.05;;
38529;SDS011;24301;54.332;48.386;2023-05-16T12:21:45;7.88;;;6.85;;
38529;SDS011;24301;54.332;48.386;2023-05-16T12:24:11;8.10;;;6.47;;
38529;SDS011;24301;54.332;48.386;2023-05-16T12:26:38;7.60;;;6.28;;
38529;SDS011;24301;54.332;48.386;2023-05-16T12:29:05;7.53;;;6.65;;
38529;SDS011;24301;54.332;48.386;2023-05-16T12:31:35;9.13;;;6.57;;
38529;SDS011;24301;54.332;48.386;2023-05-16T12:34:02;7.50;;;6.80;;
38529;SDS011;24301;54.332;48.386;2023-05-16T12:36:32;8.77;;;6.80;;
38529;SDS011;24301;54.332;48.386;2023-05-16T12:38:59;7.70;;;6.90;;
38529;SDS011;24301;54.332;48.386;2023-05-16T12:41:28;7.32;;;6.30;;
38529;SDS011;24301;54.332;48.386;2023-05-16T12:44:05;7.22;;;6.47;;
38529;SDS011;24301;54.332;48.386;2023-05-16T12:46:39;7.63;;;6.78;;
38529;SDS011;24301;54.332;48.386;2023-05-16T12:49:06;9.80;;;6.78;;
38529;SDS011;24301;54.332;48.386;2023-05-16T12:51:32;7.78;;;6.80;;
38529;SDS011;24301;54.332;48.386;2023-05-16T12:54:05;7.38;;;6.00;;
38529;SDS011;24301;54.332;48.386;2023-05-16T12:56:40;8.57;;;6.43;;
38529;SDS011;24301;54.332;48.386;2023-05-16T12:59:07;6.72;;;6.05;;
38529;SDS011;24301;54.332;48.386;2023-05-16T13:01:33;8.82;;;6.95;;
38529;SDS011;24301;54.332;48.386;2023-05-16T13:04:00;8.30;;;6.25;;
38529;SDS011;24301;54.332;48.386;2023-05-16T13:06:29;8.35;;;5.85;;
38529;SDS011;24301;54.332;48.386;2023-05-16T13:08:55;9.27;;;6.55;;
38529;SDS011;24301;54.332;48.386;2023-05-16T13:11:22;8.48;;;6.38;;
38529;SDS011;24301;54.332;48.386;2023-05-16T13:13:49;10.02;;;6.63;;
38529;SDS011;24301;54.332;48.386;2023-05-16T13:16:15;7.78;;;6.82;;
38529;SDS011;24301;54.332;48.386;2023-05-16T13:18:42;8.55;;;6.78;;
38529;SDS011;24301;54.332;48.386;2023-05-16T13:21:08;9.25;;;7.30;;
38529;SDS011;24301;54.332;48.386;2023-05-16T13:23:35;8.35;;;7.43;;
38529;SDS011;24301;54.332;48.386;2023-05-16T13:26:01;9.63;;;7.88;;
38529;SDS011;24301;54.332;48.386;2023-05-16T13:28:27;11.25;;;7.75;;
38529;SDS011;24301;54.332;48.386;2023-05-16T13:30:52;8.68;;;7.63;;
38529;SDS011;24301;54.332;48.386;2023-05-16T13:33:18;9.27;;;7.43;;
38529;SDS011;24301;54.332;48.386;2023-05-16T13:35:44;9.27;;;7.80;;
38529;SDS011;24301;54.332;48.386;2023-05-16T13:38:10;10.65;;;8.13;;
38529;SDS011;24301;54.332;48.386;2023-05-16T13:40:36;10.60;;;7.82;;
38529;SDS011;24301;54.332;48.386;2023-05-16T13:43:02;9.48;;;7.75;;
38529;SDS011;24301;54.332;48.386;2023-05-16T13:45:28;9.95;;;8.07;;
38529;SDS011;24301;54.332;48.386;2023-05-16T13:47:59;12.13;;;10.45;;
38529;SDS011;24301;54.332;48.386;2023-05-16T13:50:25;15.00;;;9.02;;
38529;SDS011;24301;54.332;48.386;2023-05-16T13:52:52;10.45;;;8.38;;
38529;SDS011;24301;54.332;48.386;2023-05-16T13:55:18;11.15;;;8.05;;
38529;SDS011;24301;54.332;48.386;2023-05-16T13:57:44;7.95;;;7.13;;
38529;SDS011;24301;54.332;48.386;2023-05-16T14:00:10;10.02;;;7.25;;
38529;SDS011;24301;54.332;48.386;2023-05-16T14:02:39;8.88;;;7.35;;
38529;SDS011;24301;54.332;48.386;2023-05-16T14:05:07;8.75;;;7.18;;
38529;SDS011;24301;54.332;48.386;2023-05-16T14:07:33;9.85;;;7.53;;
38529;SDS011;24301;54.332;48.386;2023-05-16T14:10:20;8.90;;;7.10;;
38529;SDS011;24301;54.332;48.386;2023-05-16T14:12:46;9.75;;;7.40;;
38529;SDS011;24301;54.332;48.386;2023-05-16T14:15:13;8.02;;;6.40;;
38529;SDS011;24301;54.332;48.386;2023-05-16T14:17:39;8.00;;;6.20;;
38529;SDS011;24301;54.332;48.386;2023-05-16T14:20:05;9.07;;;7.25;;
38529;SDS011;24301;54.332;48.386;2023-05-16T14:22:35;8.25;;;6.45;;
38529;SDS011;24301;54.332;48.386;2023-05-16T14:25:02;8.35;;;7.43;;
38529;SDS011;24301;54.332;48.386;2023-05-16T14:27:29;8.68;;;6.53;;
38529;SDS011;24301;54.332;48.386;2023-05-16T14:29:55;9.73;;;7.15;;
38529;SDS011;24301;54.332;48.386;2023-05-16T14:32:22;9.57;;;7.30;;
38529;SDS011;24301;54.332;48.386;2023-05-16T14:34:48;10.20;;;6.75;;
38529;SDS011;24301;54.332;48.386;2023-05-16T14:37:14;8.05;;;6.43;;
38529;SDS011;24301;54.332;48.386;2023-05-16T14:39:41;8.82;;;7.15;;
38529;SDS011;24301;54.332;48.386;2023-05-16T14:42:11;8.35;;;7.15;;
38529;SDS011;24301;54.332;48.386;2023-05-16T14:44:37;9.63;;;6.95;;
38529;SDS011;24301;54.332;48.386;2023-05-16T14:47:03;11.52;;;8.10;;
38529;SDS011;24301;54.332;48.386;2023-05-16T14:49:29;8.90;;;7.53;;
38529;SDS011;24301;54.332;48.386;2023-05-16T14:51:56;8.10;;;7.30;;
38529;SDS011;24301;54.332;48.386;2023-05-16T14:54:22;11.68;;;7.22;;
38529;SDS011;24301;54.332;48.386;2023-05-16T14:56:48;9.25;;;7.53;;
38529;SDS011;24301;54.332;48.386;2023-05-16T14:59:14;7.30;;;6.53;;
38529;SDS011;24301;54.332;48.386;2023-05-16T15:01:40;7.70;;;6.60;;
38529;SDS011;24301;54.332;48.386;2023-05-16T15:04:06;8.98;;;6.63;;
38529;SDS011;24301;54.332;48.386;2023-05-16T15:06:31;8.18;;;6.57;;
38529;SDS011;24301;54.332;48.386;2023-05-16T15:08:57;12.70;;;6.57;;